Time;durP1;ratioP1;P1;durP2;ratioP2;P2;SDS_P1;SDS_P2;PMS_P1;PMS_P2;Temp;Humidity;BMP_temperature;BMP_pressure;BME280_temperature;BME280_humidity;BME280_pressure;Samples;Min_cycle;Max_cycle;Signal;HPM_P1;HPM_P2
2023/12/06 00:00:35;;;;;;;8.90;8.80;;;4.70;1.00;;;;;;4961636;28;20286;-81
2023/12/06 00:03:05;;;;;;;8.80;8.70;;;4.60;99.90;;;;;;4961380;28;20239;-81
2023/12/06 00:05:33;;;;;;;8.73;8.63;;;4.60;99.90;;;;;;4957276;28;20733;-82
2023/12/06 00:08:02;;;;;;;9.00;8.75;;;4.50;1.00;;;;;;4964292;28;20276;-82
2023/12/06 00:10:30;;;;;;;8.93;8.73;;;4.60;99.90;;;;;;4965277;28;20590;-82
2023/12/06 00:12:59;;;;;;;8.60;8.50;;;4.70;99.90;;;;;;4964180;28;20204;-83
2023/12/06 00:15:28;;;;;;;8.70;8.60;;;4.70;99.40;;;;;;4963292;28;20251;-82
2023/12/06 00:17:56;;;;;;;9.20;8.90;;;4.70;99.90;;;;;;4960119;28;20246;-82
2023/12/06 00:20:26;;;;;;;9.00;8.90;;;4.70;1.00;;;;;;4959632;28;20220;-83
2023/12/06 00:22:55;;;;;;;8.70;8.60;;;4.80;1.00;;;;;;4963285;28;20215;-83
2023/12/06 00:25:23;;;;;;;9.00;8.70;;;4.80;1.00;;;;;;4958834;28;20210;-83
2023/12/06 00:27:53;;;;;;;9.27;9.10;;;4.80;99.90;;;;;;4960068;28;20209;-82
2023/12/06 00:30:21;;;;;;;8.88;8.68;;;4.80;1.00;;;;;;4959054;28;20219;-83
2023/12/06 00:32:49;;;;;;;8.70;8.50;;;4.80;1.00;;;;;;4974287;28;20322;-83
2023/12/06 00:35:18;;;;;;;8.77;8.60;;;4.80;99.90;;;;;;4957625;28;20260;-82
2023/12/06 00:37:47;;;;;;;9.38;9.18;;;4.70;99.90;;;;;;4956845;28;20223;-82
2023/12/06 00:40:16;;;;;;;9.40;9.20;;;4.70;1.00;;;;;;4956619;28;20211;-82
2023/12/06 00:42:45;;;;;;;9.13;8.93;;;4.70;1.00;;;;;;4957897;28;20451;-83
2023/12/06 00:45:13;;;;;;;9.10;8.90;;;4.70;1.00;;;;;;4958810;28;20365;-84
2023/12/06 00:47:42;;;;;;;9.40;9.20;;;4.70;1.00;;;;;;4958724;28;20227;-83
2023/12/06 00:50:10;;;;;;;9.10;8.80;;;4.70;1.00;;;;;;4957648;28;20201;-85
2023/12/06 00:52:38;;;;;;;8.55;8.40;;;4.70;99.90;;;;;;4958517;28;20702;-84
2023/12/06 00:55:09;;;;;;;9.13;8.93;;;4.70;15.00;;;;;;4957185;28;20244;-82
2023/12/06 00:57:37;;;;;;;8.60;8.50;;;4.80;1.00;;;;;;4957521;28;20220;-84
2023/12/06 01:00:07;;;;;;;8.60;8.50;;;4.70;99.90;;;;;;4961039;28;20220;-83
2023/12/06 01:02:35;;;;;;;8.48;8.30;;;4.80;99.90;;;;;;4959602;28;20208;-83
2023/12/06 01:05:06;;;;;;;8.80;8.70;;;4.80;31.30;;;;;;4961023;28;20209;-83
2023/12/06 01:07:35;;;;;;;8.80;8.70;;;4.80;98.30;;;;;;4958347;28;20213;-83
2023/12/06 01:10:04;;;;;;;8.70;8.50;;;4.80;13.50;;;;;;4959514;28;20200;-82
2023/12/06 01:12:35;;;;;;;8.80;8.60;;;4.80;1.00;;;;;;4955591;28;20263;-83
2023/12/06 01:15:04;;;;;;;9.65;9.45;;;4.90;1.00;;;;;;4955791;28;20312;-83
2023/12/06 01:17:33;;;;;;;8.70;8.60;;;4.80;1.00;;;;;;4957717;28;20260;-79
2023/12/06 01:20:02;;;;;;;8.80;8.70;;;4.80;1.00;;;;;;4956269;28;20204;-82
2023/12/06 01:22:30;;;;;;;8.82;8.73;;;4.90;1.90;;;;;;4959016;28;20415;-83
2023/12/06 01:24:58;;;;;;;8.95;8.85;;;4.90;1.00;;;;;;4958768;28;20208;-82
2023/12/06 01:27:26;;;;;;;8.90;8.80;;;4.80;1.00;;;;;;4956291;28;20300;-81
2023/12/06 01:29:56;;;;;;;9.20;9.00;;;4.80;99.90;;;;;;4957559;28;20266;-84
2023/12/06 01:32:38;;;;;;;8.82;8.63;;;4.80;99.90;;;;;;4955067;28;20280;-83
2023/12/06 01:35:08;;;;;;;9.10;9.00;;;4.80;27.70;;;;;;4949118;28;20216;-83
2023/12/06 01:37:36;;;;;;;8.98;8.88;;;4.80;1.00;;;;;;4957044;28;20384;-83
2023/12/06 01:40:06;;;;;;;9.27;9.18;;;4.80;99.90;;;;;;4956002;28;20220;-84
2023/12/06 01:42:34;;;;;;;9.00;8.80;;;4.80;99.90;;;;;;4954579;28;20621;-84
2023/12/06 01:45:05;;;;;;;8.90;8.80;;;4.80;99.90;;;;;;4957610;28;20214;-84
2023/12/06 01:47:35;;;;;;;9.18;8.98;;;4.80;99.90;;;;;;4955306;28;20288;-84
2023/12/06 01:50:05;;;;;;;8.77;8.68;;;4.80;99.90;;;;;;4955791;28;20204;-84
2023/12/06 01:52:34;;;;;;;8.80;8.70;;;4.90;99.90;;;;;;4956948;28;20272;-84
2023/12/06 01:55:03;;;;;;;8.90;8.80;;;4.90;35.10;;;;;;4959095;28;20208;-84
2023/12/06 01:57:32;;;;;;;8.70;8.60;;;4.80;96.70;;;;;;4953747;28;20263;-83
2023/12/06 02:00:01;;;;;;;8.70;8.60;;;4.80;1.00;;;;;;4958057;28;20714;-84
2023/12/06 02:02:31;;;;;;;8.80;8.70;;;4.80;80.80;;;;;;4953811;28;20209;-84
2023/12/06 02:04:59;;;;;;;8.70;8.60;;;4.80;99.90;;;;;;4956505;28;20296;-86
2023/12/06 02:07:29;;;;;;;8.80;8.70;;;4.70;11.70;;;;;;4956934;28;20229;-84
2023/12/06 02:09:57;;;;;;;8.90;8.70;;;4.70;99.90;;;;;;4956996;28;20208;-85
2023/12/06 02:12:25;;;;;;;9.50;9.10;;;4.70;99.90;;;;;;4957746;28;20233;-84
2023/12/06 02:14:53;;;;;;;8.90;8.80;;;4.80;1.00;;;;;;4954938;28;20202;-82
2023/12/06 02:17:21;;;;;;;8.70;8.60;;;4.80;99.90;;;;;;4957072;28;20909;-85
2023/12/06 02:19:52;;;;;;;9.20;9.10;;;4.80;1.60;;;;;;4957056;28;20226;-84
2023/12/06 02:22:21;;;;;;;9.05;8.95;;;4.80;1.00;;;;;;4956015;28;20544;-84
2023/12/06 02:24:52;;;;;;;9.15;9.05;;;4.80;1.00;;;;;;4954429;28;20283;-84
2023/12/06 02:27:25;;;;;;;9.20;9.10;;;4.80;1.00;;;;;;4957298;28;20243;-85
2023/12/06 02:29:53;;;;;;;9.00;8.80;;;4.80;17.10;;;;;;4959435;28;20197;-82
2023/12/06 02:32:21;;;;;;;8.80;8.70;;;4.80;1.00;;;;;;4961701;28;20235;-82
2023/12/06 02:34:51;;;;;;;8.90;8.80;;;4.90;1.00;;;;;;4961482;28;20294;-83
2023/12/06 02:37:23;;;;;;;8.88;8.77;;;4.80;1.00;;;;;;4960434;28;20228;-84
2023/12/06 02:39:55;;;;;;;8.82;8.63;;;4.80;1.00;;;;;;4960171;28;20212;-84
2023/12/06 02:42:25;;;;;;;8.80;8.70;;;4.90;1.00;;;;;;4961997;28;20228;-84
2023/12/06 02:44:53;;;;;;;8.40;8.30;;;4.80;1.00;;;;;;4962433;28;20224;-84
2023/12/06 02:47:22;;;;;;;8.60;8.50;;;4.90;1.00;;;;;;4960840;28;20822;-83
2023/12/06 02:49:51;;;;;;;8.43;8.33;;;4.90;1.00;;;;;;4960243;28;20679;-84
2023/12/06 02:52:19;;;;;;;8.70;8.60;;;4.90;1.00;;;;;;4960175;28;20445;-82
2023/12/06 02:54:48;;;;;;;8.52;8.43;;;4.90;99.90;;;;;;4959202;28;20587;-83
2023/12/06 02:57:16;;;;;;;8.90;8.80;;;4.90;99.90;;;;;;4958104;28;20290;-83
2023/12/06 02:59:45;;;;;;;8.10;8.00;;;4.90;99.90;;;;;;4961218;28;20252;-82
2023/12/06 03:02:14;;;;;;;8.15;8.05;;;4.90;1.00;;;;;;4961274;28;20592;-82
2023/12/06 03:04:42;;;;;;;8.30;8.20;;;4.90;1.00;;;;;;4959097;28;20200;-83
2023/12/06 03:07:10;;;;;;;8.60;8.50;;;4.80;99.90;;;;;;4960212;28;20252;-82
2023/12/06 03:09:39;;;;;;;8.70;8.60;;;4.90;1.00;;;;;;4961996;28;20299;-83
2023/12/06 03:12:07;;;;;;;8.63;8.52;;;4.90;1.00;;;;;;4973335;28;20204;-82
2023/12/06 03:14:35;;;;;;;8.87;8.77;;;4.90;99.90;;;;;;4960695;28;20204;-84
2023/12/06 03:17:05;;;;;;;8.77;8.68;;;5.00;99.90;;;;;;4957378;28;20538;-82
2023/12/06 03:19:34;;;;;;;8.88;8.77;;;5.00;99.90;;;;;;4957962;28;20600;-84
2023/12/06 03:22:02;;;;;;;8.85;8.75;;;5.00;99.90;;;;;;4959753;28;20210;-84
2023/12/06 03:24:30;;;;;;;9.13;9.03;;;5.00;99.90;;;;;;4960300;28;20244;-83
2023/12/06 03:26:58;;;;;;;8.75;8.60;;;5.00;99.90;;;;;;4959129;28;21588;-84
2023/12/06 03:29:27;;;;;;;8.70;8.50;;;4.90;99.90;;;;;;4956828;28;20331;-83
2023/12/06 03:31:55;;;;;;;9.20;9.10;;;5.00;99.90;;;;;;4957510;28;20206;-83
2023/12/06 03:34:25;;;;;;;9.07;8.93;;;5.00;99.90;;;;;;4956456;28;20756;-82
2023/12/06 03:36:54;;;;;;;8.35;8.25;;;5.00;99.90;;;;;;4958516;28;20507;-84
2023/12/06 03:39:22;;;;;;;8.50;8.40;;;5.00;99.90;;;;;;4958831;28;20228;-84
2023/12/06 03:41:50;;;;;;;8.37;8.27;;;5.00;5.10;;;;;;4958760;28;20297;-82
2023/12/06 03:44:18;;;;;;;8.60;8.40;;;5.00;48.70;;;;;;4960163;28;20468;-83
2023/12/06 03:46:46;;;;;;;8.48;8.38;;;5.00;1.00;;;;;;4958270;28;20244;-84
2023/12/06 03:49:14;;;;;;;8.40;8.30;;;5.00;87.40;;;;;;4959766;28;20211;-81
2023/12/06 03:51:44;;;;;;;8.50;8.40;;;5.00;99.90;;;;;;4961768;28;20214;-83
2023/12/06 03:54:12;;;;;;;8.80;8.70;;;5.00;99.90;;;;;;4965094;28;20204;-85
2023/12/06 03:56:41;;;;;;;8.52;8.43;;;5.00;86.80;;;;;;4966864;28;20575;-85
2023/12/06 03:59:09;;;;;;;8.60;8.50;;;5.00;15.10;;;;;;4959360;28;20600;-84
2023/12/06 04:01:37;;;;;;;8.88;8.77;;;5.10;1.00;;;;;;4959234;28;20471;-85
2023/12/06 04:04:06;;;;;;;9.20;9.10;;;5.10;1.00;;;;;;4959793;28;20215;-83
2023/12/06 04:06:34;;;;;;;9.18;9.07;;;5.10;1.00;;;;;;4960050;28;20492;-85
2023/12/06 04:09:04;;;;;;;9.50;9.40;;;5.10;1.00;;;;;;4960945;28;20208;-85
2023/12/06 04:11:32;;;;;;;9.10;9.00;;;5.10;1.00;;;;;;4959527;28;20486;-85
2023/12/06 04:14:00;;;;;;;9.15;9.05;;;5.00;1.00;;;;;;4958359;28;20300;-83
2023/12/06 04:16:30;;;;;;;9.43;9.30;;;5.00;1.00;;;;;;4958866;28;20662;-85
2023/12/06 04:18:58;;;;;;;9.10;9.00;;;5.00;1.00;;;;;;4960722;28;20214;-83
2023/12/06 04:21:26;;;;;;;9.00;8.90;;;4.90;91.60;;;;;;4973411;28;20475;-84
2023/12/06 04:23:55;;;;;;;9.27;9.10;;;5.00;99.90;;;;;;4955654;28;20659;-85
2023/12/06 04:26:25;;;;;;;9.50;9.40;;;5.00;40.60;;;;;;4954558;28;20557;-83
2023/12/06 04:28:53;;;;;;;9.70;9.50;;;5.00;1.00;;;;;;4956925;28;20875;-86
2023/12/06 04:31:21;;;;;;;9.73;9.52;;;5.00;1.00;;;;;;4957594;28;20204;-84
2023/12/06 04:33:50;;;;;;;9.70;9.60;;;5.10;1.00;;;;;;4960553;28;20294;-85
2023/12/06 04:36:18;;;;;;;10.02;9.82;;;5.10;1.00;;;;;;4961655;28;20451;-83
2023/12/06 04:38:46;;;;;;;9.13;9.02;;;5.10;1.00;;;;;;4959448;28;20292;-86
2023/12/06 04:41:15;;;;;;;9.40;9.30;;;5.10;1.00;;;;;;4959081;28;20216;-85
2023/12/06 04:43:44;;;;;;;9.50;9.40;;;5.10;1.00;;;;;;4960152;28;20207;-84
2023/12/06 04:46:15;;;;;;;9.50;9.40;;;5.10;1.00;;;;;;4963504;28;20217;-85
2023/12/06 04:48:43;;;;;;;9.50;9.30;;;5.10;1.00;;;;;;4965634;28;22743;-83
2023/12/06 04:51:12;;;;;;;9.55;9.40;;;5.10;1.00;;;;;;4969781;28;20193;-83
2023/12/06 04:53:40;;;;;;;9.60;9.50;;;5.10;1.00;;;;;;4957196;28;20207;-84
2023/12/06 04:56:09;;;;;;;9.30;9.17;;;5.10;1.00;;;;;;4958823;28;20209;-85
2023/12/06 04:58:37;;;;;;;9.60;9.30;;;5.10;1.00;;;;;;4969463;28;20484;-83
2023/12/06 05:01:08;;;;;;;9.50;9.40;;;5.10;1.00;;;;;;4970104;28;20464;-81
2023/12/06 05:03:36;;;;;;;9.10;9.00;;;5.10;1.00;;;;;;4957083;28;20204;-84
2023/12/06 05:06:06;;;;;;;9.10;9.00;;;5.20;1.00;;;;;;4958572;28;20542;-85
2023/12/06 05:08:35;;;;;;;9.40;9.30;;;5.20;1.00;;;;;;4961586;28;21084;-84
2023/12/06 05:11:03;;;;;;;9.20;9.10;;;5.20;1.00;;;;;;4961275;28;20467;-85
2023/12/06 05:13:31;;;;;;;9.38;9.27;;;5.20;1.00;;;;;;4960014;28;20200;-84
2023/12/06 05:15:59;;;;;;;9.33;9.23;;;5.20;1.00;;;;;;4962178;28;20204;-84
2023/12/06 05:18:29;;;;;;;9.50;9.40;;;5.10;1.00;;;;;;4960105;28;20479;-84
2023/12/06 05:20:57;;;;;;;9.43;9.32;;;5.10;90.00;;;;;;4960420;28;20579;-84
2023/12/06 05:23:26;;;;;;;10.25;10.05;;;5.10;99.90;;;;;;4961218;28;21213;-83
2023/12/06 05:25:54;;;;;;;10.43;10.20;;;5.20;1.00;;;;;;4960503;28;20244;-83
2023/12/06 05:28:22;;;;;;;10.50;10.30;;;5.20;99.90;;;;;;4957432;28;20311;-83
2023/12/06 05:30:51;;;;;;;11.35;10.95;;;5.20;3.60;;;;;;4959128;28;20205;-83
2023/12/06 05:33:19;;;;;;;10.38;10.18;;;5.10;1.00;;;;;;4959947;28;20201;-79
2023/12/06 05:35:48;;;;;;;10.25;9.60;;;5.10;1.00;;;;;;4960380;28;20247;-79
2023/12/06 05:38:17;;;;;;;9.50;9.30;;;5.20;1.00;;;;;;4958425;28;20238;-78
2023/12/06 05:40:45;;;;;;;10.10;9.90;;;5.10;1.00;;;;;;4959988;28;20236;-79
2023/12/06 05:43:14;;;;;;;10.43;10.23;;;5.10;1.00;;;;;;4961657;28;20741;-79
2023/12/06 05:45:42;;;;;;;9.50;9.40;;;5.10;1.00;;;;;;4960035;28;20235;-79
2023/12/06 05:48:10;;;;;;;8.93;8.82;;;5.10;1.00;;;;;;4952403;28;20235;-81
2023/12/06 05:50:39;;;;;;;9.50;9.30;;;5.10;1.00;;;;;;4953468;28;20567;-80
2023/12/06 05:53:09;;;;;;;9.82;9.63;;;5.00;1.00;;;;;;4957303;28;20667;-79
2023/12/06 05:55:37;;;;;;;9.82;9.63;;;5.00;99.90;;;;;;4956413;28;20836;-80
2023/12/06 05:58:05;;;;;;;10.00;9.80;;;5.00;97.50;;;;;;4957967;28;20227;-81
2023/12/06 06:00:33;;;;;;;9.65;9.55;;;5.00;10.50;;;;;;4956696;28;20212;-80
2023/12/06 06:03:02;;;;;;;9.80;9.70;;;4.90;99.90;;;;;;4955207;28;20217;-79
2023/12/06 06:05:30;;;;;;;10.40;10.20;;;4.90;99.90;;;;;;4957215;28;20455;-79
2023/12/06 06:07:59;;;;;;;10.20;10.00;;;4.90;99.90;;;;;;4955749;28;20478;-79
2023/12/06 06:10:29;;;;;;;10.10;9.90;;;5.00;99.90;;;;;;4959852;28;20223;-79
2023/12/06 06:12:57;;;;;;;9.88;9.73;;;5.00;99.90;;;;;;4957640;28;20204;-80
2023/12/06 06:15:26;;;;;;;10.43;10.23;;;5.00;99.90;;;;;;4956608;28;20291;-80
2023/12/06 06:17:54;;;;;;;10.35;10.15;;;5.00;20.00;;;;;;4957497;28;20224;-80
2023/12/06 06:20:22;;;;;;;9.95;9.75;;;5.00;99.90;;;;;;4955924;28;20207;-79
2023/12/06 06:22:50;;;;;;;10.40;10.20;;;5.00;99.90;;;;;;4956452;28;20208;-80
2023/12/06 06:25:18;;;;;;;10.02;9.82;;;5.00;99.90;;;;;;4957857;28;20943;-77
2023/12/06 06:27:48;;;;;;;10.30;10.10;;;5.00;35.70;;;;;;4955351;28;20287;-80
2023/12/06 06:30:17;;;;;;;11.65;11.25;;;4.90;99.90;;;;;;4955990;28;20209;-80
2023/12/06 06:32:45;;;;;;;10.60;10.40;;;5.00;99.90;;;;;;4957620;28;20212;-79
2023/12/06 06:35:13;;;;;;;10.10;9.90;;;5.00;96.30;;;;;;4955774;28;20215;-79
2023/12/06 06:37:42;;;;;;;10.30;10.10;;;5.10;99.90;;;;;;4955756;28;20229;-81
2023/12/06 06:40:14;;;;;;;10.40;10.20;;;5.10;1.00;;;;;;4960806;28;20721;-81
2023/12/06 06:42:43;;;;;;;10.50;10.30;;;5.00;1.00;;;;;;4956932;28;20212;-80
2023/12/06 06:45:13;;;;;;;10.45;10.25;;;5.00;34.80;;;;;;4956999;28;21850;-80
2023/12/06 06:47:42;;;;;;;10.10;9.90;;;5.10;32.00;;;;;;4957777;28;20778;-79
2023/12/06 06:50:10;;;;;;;9.60;9.50;;;5.10;88.10;;;;;;4958817;28;20204;-79
2023/12/06 06:52:39;;;;;;;9.90;9.70;;;5.00;99.90;;;;;;4949937;28;20204;-78
2023/12/06 06:55:08;;;;;;;9.60;9.37;;;5.00;99.90;;;;;;4960618;28;20216;-80
2023/12/06 06:57:37;;;;;;;9.88;9.68;;;5.00;99.90;;;;;;4958389;28;21111;-80
2023/12/06 07:00:09;;;;;;;10.20;10.00;;;5.10;99.90;;;;;;4958828;28;20295;-80
2023/12/06 07:02:39;;;;;;;10.30;10.10;;;5.10;99.90;;;;;;4956336;28;20232;-78
2023/12/06 07:05:12;;;;;;;10.80;10.60;;;5.10;99.90;;;;;;4959517;28;20451;-80
2023/12/06 07:07:42;;;;;;;10.40;10.20;;;5.10;6.30;;;;;;4958939;28;20216;-80
2023/12/06 07:10:11;;;;;;;10.60;10.30;;;5.10;96.90;;;;;;4961652;28;20196;-80
2023/12/06 07:12:40;;;;;;;10.60;10.40;;;5.10;83.40;;;;;;4959515;28;20225;-79
2023/12/06 07:15:14;;;;;;;10.15;9.95;;;5.10;1.00;;;;;;4959021;28;20466;-78
2023/12/06 07:17:45;;;;;;;10.10;9.90;;;5.10;11.90;;;;;;4962924;28;20220;-80
2023/12/06 07:20:14;;;;;;;9.68;9.48;;;5.20;61.50;;;;;;4963278;28;20208;-81
2023/12/06 07:22:42;;;;;;;9.95;9.75;;;5.10;99.90;;;;;;4964950;28;20229;-80
2023/12/06 07:25:12;;;;;;;10.10;9.90;;;5.20;99.90;;;;;;4961450;28;20541;-79
2023/12/06 07:27:40;;;;;;;10.50;10.30;;;5.20;99.90;;;;;;4964337;28;20221;-79
2023/12/06 07:30:10;;;;;;;10.48;10.27;;;5.10;34.30;;;;;;4960169;28;20224;-80
2023/12/06 07:32:38;;;;;;;10.60;10.40;;;5.10;94.90;;;;;;4964343;28;20228;-80
2023/12/06 07:35:21;;;;;;;10.63;10.43;;;5.10;99.90;;;;;;4961621;28;20197;-78
2023/12/06 07:37:49;;;;;;;10.40;10.20;;;5.20;94.90;;;;;;4961482;28;20228;-80
2023/12/06 07:40:18;;;;;;;10.57;10.37;;;5.10;99.90;;;;;;4969724;28;20201;-78
2023/12/06 07:42:47;;;;;;;10.73;10.52;;;5.10;99.90;;;;;;4971191;28;20478;-80
2023/12/06 07:45:15;;;;;;;10.35;10.15;;;5.10;99.90;;;;;;4968746;28;20263;-80
2023/12/06 07:47:45;;;;;;;10.30;10.10;;;5.10;99.90;;;;;;4965249;28;21200;-80
2023/12/06 07:50:13;;;;;;;10.70;10.40;;;5.10;99.90;;;;;;4960666;28;20200;-78
2023/12/06 07:52:43;;;;;;;10.68;10.43;;;5.10;99.90;;;;;;4965530;28;20292;-79
2023/12/06 07:55:13;;;;;;;10.90;10.60;;;5.10;1.00;;;;;;4963736;28;20197;-80
2023/12/06 07:57:44;;;;;;;10.40;10.20;;;5.10;1.00;;;;;;4959652;28;20299;-79
2023/12/06 08:00:14;;;;;;;10.63;10.43;;;5.10;1.00;;;;;;4961592;28;20197;-80
2023/12/06 08:02:43;;;;;;;11.13;10.80;;;5.20;1.00;;;;;;4959057;28;20768;-79
2023/12/06 08:05:11;;;;;;;11.07;10.77;;;5.10;1.00;;;;;;4963404;28;20569;-80
2023/12/06 08:07:40;;;;;;;11.00;10.80;;;5.20;1.00;;;;;;4961640;28;20248;-79
2023/12/06 08:10:12;;;;;;;11.15;10.90;;;5.30;1.00;;;;;;4965248;28;20212;-79
2023/12/06 08:12:41;;;;;;;11.30;11.10;;;5.30;1.00;;;;;;4957775;28;20209;-78
2023/12/06 08:15:10;;;;;;;11.40;11.10;;;5.30;99.90;;;;;;4961581;28;20528;-79
2023/12/06 08:17:38;;;;;;;11.83;11.43;;;5.30;99.90;;;;;;4960940;28;20233;-80
2023/12/06 08:20:08;;;;;;;11.88;11.57;;;5.40;99.90;;;;;;4964776;28;20448;-79
2023/12/06 08:22:36;;;;;;;11.65;11.35;;;5.40;99.90;;;;;;4963654;28;20251;-79
2023/12/06 08:25:06;;;;;;;11.73;11.33;;;5.40;99.90;;;;;;4962985;28;20256;-79
2023/12/06 08:27:36;;;;;;;12.35;11.95;;;5.40;99.90;;;;;;4961593;28;20471;-79
2023/12/06 08:30:06;;;;;;;12.15;11.75;;;5.50;99.90;;;;;;4961409;28;20247;-80
2023/12/06 08:32:35;;;;;;;13.00;12.43;;;5.50;95.10;;;;;;4959144;28;20641;-79
2023/12/06 08:35:03;;;;;;;12.55;12.15;;;5.50;99.90;;;;;;4962216;28;20243;-78
2023/12/06 08:37:31;;;;;;;12.80;12.40;;;5.50;99.90;;;;;;4959923;28;20220;-79
2023/12/06 08:39:59;;;;;;;12.73;12.37;;;5.50;1.00;;;;;;4961468;28;20816;-79
2023/12/06 08:42:28;;;;;;;13.55;13.05;;;5.50;1.00;;;;;;4958968;28;20478;-79
2023/12/06 08:44:58;;;;;;;13.93;13.35;;;5.60;99.90;;;;;;4958872;28;20232;-80
2023/12/06 08:47:27;;;;;;;13.80;13.40;;;5.50;99.90;;;;;;4957775;28;20225;-79
2023/12/06 08:49:55;;;;;;;14.03;13.53;;;5.60;1.00;;;;;;4960264;28;20453;-79
2023/12/06 08:52:24;;;;;;;14.32;13.82;;;5.50;1.00;;;;;;4958767;28;20559;-79
2023/12/06 08:54:53;;;;;;;15.50;14.57;;;5.50;1.00;;;;;;4960154;28;20197;-79
2023/12/06 08:57:21;;;;;;;13.82;13.32;;;5.50;99.90;;;;;;4961493;28;20599;-79
2023/12/06 08:59:50;;;;;;;14.07;13.38;;;5.50;99.90;;;;;;4961551;28;20208;-80
2023/12/06 09:02:19;;;;;;;14.77;13.90;;;5.50;99.90;;;;;;4957775;28;20220;-79
2023/12/06 09:04:47;;;;;;;14.90;14.13;;;5.60;99.90;;;;;;4962913;28;20212;-80
2023/12/06 09:07:16;;;;;;;15.03;14.30;;;5.50;99.90;;;;;;4959318;28;20228;-79
2023/12/06 09:09:46;;;;;;;15.90;15.10;;;5.60;99.90;;;;;;4962539;28;20452;-80
2023/12/06 09:12:15;;;;;;;14.80;13.97;;;5.50;99.90;;;;;;4959744;28;20455;-79
2023/12/06 09:14:43;;;;;;;14.65;13.95;;;5.50;99.90;;;;;;4959359;28;20536;-79
2023/12/06 09:17:11;;;;;;;14.93;14.32;;;5.50;99.90;;;;;;4959156;28;20680;-79
2023/12/06 09:19:42;;;;;;;15.23;14.53;;;5.50;99.90;;;;;;4958521;28;20204;-80
2023/12/06 09:22:10;;;;;;;14.55;13.75;;;5.50;99.90;;;;;;4960679;28;20593;-79
2023/12/06 09:24:39;;;;;;;14.70;14.10;;;5.50;99.90;;;;;;4957337;28;20215;-80
2023/12/06 09:27:07;;;;;;;15.45;14.55;;;5.60;99.90;;;;;;4961261;28;20228;-80
2023/12/06 09:29:35;;;;;;;15.00;14.30;;;5.50;99.90;;;;;;4960871;28;20255;-80
2023/12/06 09:32:05;;;;;;;14.30;13.57;;;5.60;99.90;;;;;;4959676;28;20202;-80
2023/12/06 09:34:33;;;;;;;14.00;13.40;;;5.60;99.90;;;;;;4961938;28;20463;-80
2023/12/06 09:37:09;;;;;;;14.90;14.20;;;5.60;99.90;;;;;;4959534;28;20247;-80
2023/12/06 09:39:37;;;;;;;14.75;13.85;;;5.50;99.90;;;;;;4958667;28;20478;-80
2023/12/06 09:42:06;;;;;;;14.10;13.40;;;5.50;99.90;;;;;;4962012;28;20193;-80
2023/12/06 09:44:37;;;;;;;13.87;13.17;;;5.50;99.90;;;;;;4959009;28;20200;-80
2023/12/06 09:47:06;;;;;;;15.90;15.00;;;5.50;99.90;;;;;;4958554;28;20507;-80
2023/12/06 09:49:34;;;;;;;14.68;13.93;;;5.50;99.90;;;;;;4965070;28;20478;-80
2023/12/06 09:52:12;;;;;;;15.73;14.70;;;5.50;99.90;;;;;;4960739;28;20204;-80
2023/12/06 09:54:41;;;;;;;14.97;14.17;;;5.50;99.90;;;;;;4961733;28;20972;-79
2023/12/06 09:57:10;;;;;;;15.90;14.90;;;5.50;99.90;;;;;;4959259;28;20543;-80
2023/12/06 09:59:38;;;;;;;16.10;15.30;;;5.60;99.90;;;;;;4960154;28;20468;-80
2023/12/06 10:02:07;;;;;;;15.40;14.67;;;5.50;99.90;;;;;;4959997;28;20475;-80
2023/12/06 10:04:36;;;;;;;16.23;15.23;;;5.60;99.90;;;;;;4957956;28;20519;-79
2023/12/06 10:07:05;;;;;;;15.23;14.40;;;5.50;99.90;;;;;;4958568;28;20484;-80
2023/12/06 10:09:34;;;;;;;15.60;14.80;;;5.50;99.90;;;;;;4955054;28;20204;-80
2023/12/06 10:12:09;;;;;;;15.77;14.87;;;5.50;99.90;;;;;;4959477;28;21039;-80
2023/12/06 10:14:38;;;;;;;16.33;15.43;;;5.60;99.90;;;;;;4957253;28;20461;-80
2023/12/06 10:17:09;;;;;;;15.50;14.80;;;5.60;99.90;;;;;;4958232;28;20217;-81
2023/12/06 10:19:37;;;;;;;15.55;14.77;;;5.60;99.90;;;;;;4957791;28;20314;-80
2023/12/06 10:22:07;;;;;;;15.65;14.95;;;5.60;99.90;;;;;;4959029;28;20211;-79
2023/12/06 10:24:43;;;;;;;16.60;15.53;;;5.60;99.90;;;;;;4959652;28;20335;-80
2023/12/06 10:27:12;;;;;;;17.03;15.93;;;5.60;99.90;;;;;;4959410;28;20479;-80
2023/12/06 10:29:41;;;;;;;16.20;15.30;;;5.60;99.90;;;;;;4960265;28;20456;-80
2023/12/06 10:32:14;;;;;;;15.73;14.83;;;5.60;99.90;;;;;;4959561;28;20463;-80
2023/12/06 10:34:42;;;;;;;16.60;15.70;;;5.60;99.90;;;;;;4960360;28;20459;-80
2023/12/06 10:37:13;;;;;;;16.27;15.37;;;5.60;99.90;;;;;;4960783;28;20229;-80
2023/12/06 10:39:45;;;;;;;14.73;14.03;;;5.60;99.90;;;;;;4956213;28;20455;-80
2023/12/06 10:42:18;;;;;;;15.43;14.73;;;5.60;99.90;;;;;;4962677;28;20471;-80
2023/12/06 10:44:49;;;;;;;15.00;14.32;;;5.60;99.90;;;;;;4960966;28;20500;-80
2023/12/06 10:47:18;;;;;;;15.10;14.40;;;5.60;99.90;;;;;;4961630;28;20230;-80
2023/12/06 10:49:47;;;;;;;15.27;14.57;;;5.60;99.90;;;;;;4960059;28;21045;-80
2023/12/06 10:52:18;;;;;;;15.98;15.18;;;5.60;99.90;;;;;;4965680;28;21170;-80
2023/12/06 10:54:48;;;;;;;15.95;15.05;;;5.60;99.90;;;;;;4966247;28;20205;-80
2023/12/06 10:57:17;;;;;;;14.88;14.10;;;5.60;99.90;;;;;;4964888;28;20682;-80
2023/12/06 10:59:46;;;;;;;14.60;13.73;;;5.70;99.90;;;;;;4965269;28;20212;-80
2023/12/06 11:02:16;;;;;;;14.67;13.90;;;5.70;99.90;;;;;;4963840;28;20471;-80
2023/12/06 11:04:50;;;;;;;14.47;13.60;;;5.60;99.90;;;;;;4963948;28;20476;-80
2023/12/06 11:07:35;;;;;;;14.33;13.63;;;5.70;98.90;;;;;;4963221;28;20487;-80
2023/12/06 11:10:11;;;;;;;14.18;13.57;;;5.60;76.30;;;;;;4965613;28;20455;-80
2023/12/06 11:12:57;;;;;;;15.67;14.60;;;5.70;57.40;;;;;;4965396;28;20230;-80
2023/12/06 11:15:39;;;;;;;15.60;14.75;;;5.60;82.10;;;;;;4964055;28;20446;-80
2023/12/06 11:18:13;;;;;;;14.18;13.48;;;5.60;98.90;;;;;;4960208;28;20904;-80
2023/12/06 11:20:43;;;;;;;16.15;15.13;;;5.60;99.90;;;;;;4962444;28;20392;-80
2023/12/06 11:23:12;;;;;;;16.30;15.40;;;5.60;99.90;;;;;;4962403;28;20256;-79
2023/12/06 11:25:45;;;;;;;15.30;14.60;;;5.60;99.90;;;;;;4966897;28;20323;-80
2023/12/06 11:28:15;;;;;;;15.97;15.17;;;5.60;99.90;;;;;;4973585;28;20487;-79
2023/12/06 11:30:48;;;;;;;14.87;14.17;;;5.70;99.90;;;;;;4972068;28;20443;-80
2023/12/06 11:33:17;;;;;;;16.00;15.10;;;5.60;99.90;;;;;;4967149;28;21028;-79
2023/12/06 11:35:45;;;;;;;15.68;14.70;;;5.60;93.90;;;;;;4969668;28;20220;-79
2023/12/06 11:38:14;;;;;;;15.07;14.20;;;5.60;99.90;;;;;;4966813;28;20225;-80
2023/12/06 11:40:52;;;;;;;14.57;13.80;;;5.60;99.90;;;;;;4966764;28;21199;-80
2023/12/06 11:43:31;;;;;;;13.20;12.60;;;5.50;99.90;;;;;;4967143;28;20953;-80
2023/12/06 11:46:04;;;;;;;14.23;13.38;;;5.50;99.90;;;;;;4964786;28;20547;-80
2023/12/06 11:48:35;;;;;;;14.85;14.05;;;5.60;99.90;;;;;;4965638;28;20601;-80
2023/12/06 11:51:05;;;;;;;14.70;14.00;;;5.60;99.90;;;;;;4960919;28;20205;-80
2023/12/06 11:53:36;;;;;;;14.95;14.07;;;5.60;99.90;;;;;;4959570;28;20528;-80
2023/12/06 11:56:08;;;;;;;14.25;13.45;;;5.60;99.90;;;;;;4962045;28;20985;-79
2023/12/06 11:58:39;;;;;;;15.00;14.10;;;5.60;99.90;;;;;;4961087;28;20239;-80
2023/12/06 12:01:08;;;;;;;14.87;14.17;;;5.60;99.90;;;;;;4963995;28;20204;-80
2023/12/06 12:03:37;;;;;;;15.63;14.68;;;5.60;99.90;;;;;;4960067;28;20483;-81
2023/12/06 12:06:06;;;;;;;13.98;13.30;;;5.60;99.90;;;;;;4964205;28;20236;-81
2023/12/06 12:08:35;;;;;;;15.40;14.53;;;5.60;99.90;;;;;;4963132;28;20233;-80
2023/12/06 12:11:04;;;;;;;14.23;13.60;;;5.70;99.90;;;;;;4962875;28;20599;-80
2023/12/06 12:13:37;;;;;;;15.23;14.30;;;5.60;99.90;;;;;;4958764;28;20571;-80
2023/12/06 12:16:07;;;;;;;15.30;14.50;;;5.60;99.90;;;;;;4958183;28;20480;-80
2023/12/06 12:18:35;;;;;;;15.13;14.23;;;5.60;99.90;;;;;;4959144;28;20491;-81
2023/12/06 12:21:10;;;;;;;15.07;14.17;;;5.60;99.90;;;;;;4960823;28;20460;-80
2023/12/06 12:23:38;;;;;;;16.13;15.07;;;5.60;99.90;;;;;;4963179;28;20492;-80
2023/12/06 12:26:13;;;;;;;15.17;14.23;;;5.60;99.90;;;;;;4960659;28;21080;-81
2023/12/06 12:28:45;;;;;;;15.37;14.50;;;5.60;99.90;;;;;;4960824;28;20889;-80
2023/12/06 12:31:17;;;;;;;14.33;13.63;;;5.70;99.90;;;;;;4960512;28;20448;-80
2023/12/06 12:33:46;;;;;;;14.57;13.90;;;5.70;99.90;;;;;;4960245;28;20453;-80
2023/12/06 12:36:24;;;;;;;14.90;14.10;;;5.70;99.90;;;;;;4960861;28;20526;-80
2023/12/06 12:38:58;;;;;;;15.20;14.30;;;5.70;99.90;;;;;;4965887;28;20709;-80
2023/12/06 12:41:27;;;;;;;15.03;13.80;;;5.60;99.90;;;;;;4961350;28;20985;-80
2023/12/06 12:43:58;;;;;;;14.80;13.90;;;5.70;99.90;;;;;;4962257;28;20472;-81
2023/12/06 12:46:27;;;;;;;14.77;13.97;;;5.70;92.90;;;;;;4961517;28;20465;-80
2023/12/06 12:48:55;;;;;;;14.80;13.83;;;5.70;99.90;;;;;;4958493;28;20495;-80
2023/12/06 12:51:24;;;;;;;13.90;13.20;;;5.60;99.90;;;;;;4964917;28;20463;-79
2023/12/06 12:53:52;;;;;;;13.83;13.03;;;5.70;92.40;;;;;;4965468;28;20488;-81
2023/12/06 12:56:21;;;;;;;15.70;14.80;;;5.70;81.00;;;;;;4962040;28;20486;-79
2023/12/06 12:58:49;;;;;;;15.07;14.27;;;5.60;99.90;;;;;;4959669;28;20286;-81
2023/12/06 13:01:19;;;;;;;15.87;14.97;;;5.70;99.90;;;;;;4954913;28;20201;-80